sensor_id;sensor_type;location;lat;lon;timestamp;P1;durP1;ratioP1;P2;durP2;ratioP2
51286;SDS011;37364;46.974;18.916;2022-12-18T00:00:05;110.18;;;52.47;;
51286;SDS011;37364;46.974;18.916;2022-12-18T00:02:45;119.10;;;56.78;;
51286;SDS011;37364;46.974;18.916;2022-12-18T00:05:16;116.32;;;60.63;;
51286;SDS011;37364;46.974;18.916;2022-12-18T00:07:49;110.32;;;55.92;;
51286;SDS011;37364;46.974;18.916;2022-12-18T00:10:20;103.82;;;54.60;;
51286;SDS011;37364;46.974;18.916;2022-12-18T00:12:53;90.25;;;50.85;;
51286;SDS011;37364;46.974;18.916;2022-12-18T00:15:23;92.88;;;51.45;;
51286;SDS011;37364;46.974;18.916;2022-12-18T00:17:54;103.78;;;58.50;;
51286;SDS011;37364;46.974;18.916;2022-12-18T00:20:26;90.07;;;51.22;;
51286;SDS011;37364;46.974;18.916;2022-12-18T00:23:04;102.80;;;55.40;;
51286;SDS011;37364;46.974;18.916;2022-12-18T00:25:35;99.32;;;54.50;;
51286;SDS011;37364;46.974;18.916;2022-12-18T00:28:13;94.80;;;48.20;;
51286;SDS011;37364;46.974;18.916;2022-12-18T00:30:51;94.85;;;53.30;;
51286;SDS011;37364;46.974;18.916;2022-12-18T00:33:34;108.90;;;52.30;;
51286;SDS011;37364;46.974;18.916;2022-12-18T00:36:10;91.60;;;50.40;;
51286;SDS011;37364;46.974;18.916;2022-12-18T00:38:44;105.30;;;52.00;;
51286;SDS011;37364;46.974;18.916;2022-12-18T00:41:17;95.60;;;49.03;;
51286;SDS011;37364;46.974;18.916;2022-12-18T00:44:12;98.03;;;50.67;;
51286;SDS011;37364;46.974;18.916;2022-12-18T00:46:44;116.22;;;57.10;;
51286;SDS011;37364;46.974;18.916;2022-12-18T00:49:16;99.50;;;52.45;;
51286;SDS011;37364;46.974;18.916;2022-12-18T00:51:49;91.47;;;48.47;;
51286;SDS011;37364;46.974;18.916;2022-12-18T00:54:24;92.63;;;50.83;;
51286;SDS011;37364;46.974;18.916;2022-12-18T00:56:54;95.10;;;49.53;;
51286;SDS011;37364;46.974;18.916;2022-12-18T00:59:28;108.53;;;59.85;;
51286;SDS011;37364;46.974;18.916;2022-12-18T01:02:00;101.95;;;52.63;;
51286;SDS011;37364;46.974;18.916;2022-12-18T01:04:31;93.70;;;49.45;;
51286;SDS011;37364;46.974;18.916;2022-12-18T01:07:03;98.50;;;50.83;;
51286;SDS011;37364;46.974;18.916;2022-12-18T01:09:34;107.70;;;53.67;;
51286;SDS011;37364;46.974;18.916;2022-12-18T01:12:05;107.45;;;51.15;;
51286;SDS011;37364;46.974;18.916;2022-12-18T01:14:38;96.90;;;49.38;;
51286;SDS011;37364;46.974;18.916;2022-12-18T01:17:14;112.95;;;58.83;;
51286;SDS011;37364;46.974;18.916;2022-12-18T01:19:44;100.93;;;49.95;;
51286;SDS011;37364;46.974;18.916;2022-12-18T01:22:14;139.07;;;65.03;;
51286;SDS011;37364;46.974;18.916;2022-12-18T01:24:44;111.28;;;56.22;;
51286;SDS011;37364;46.974;18.916;2022-12-18T01:27:17;113.07;;;58.83;;
51286;SDS011;37364;46.974;18.916;2022-12-18T01:29:55;98.40;;;53.47;;
51286;SDS011;37364;46.974;18.916;2022-12-18T01:32:31;105.35;;;53.17;;
51286;SDS011;37364;46.974;18.916;2022-12-18T01:35:02;109.85;;;51.67;;
51286;SDS011;37364;46.974;18.916;2022-12-18T01:37:32;105.63;;;53.05;;
51286;SDS011;37364;46.974;18.916;2022-12-18T01:40:03;104.88;;;52.72;;
51286;SDS011;37364;46.974;18.916;2022-12-18T01:42:34;107.10;;;54.10;;
51286;SDS011;37364;46.974;18.916;2022-12-18T01:47:59;107.53;;;52.63;;
51286;SDS011;37364;46.974;18.916;2022-12-18T01:50:34;102.97;;;55.03;;
51286;SDS011;37364;46.974;18.916;2022-12-18T01:53:06;113.40;;;53.88;;
51286;SDS011;37364;46.974;18.916;2022-12-18T01:55:42;111.93;;;54.75;;
51286;SDS011;37364;46.974;18.916;2022-12-18T01:58:16;113.63;;;56.67;;
51286;SDS011;37364;46.974;18.916;2022-12-18T02:00:53;124.72;;;65.47;;
51286;SDS011;37364;46.974;18.916;2022-12-18T02:03:25;110.07;;;56.65;;
51286;SDS011;37364;46.974;18.916;2022-12-18T02:05:58;117.68;;;57.13;;
51286;SDS011;37364;46.974;18.916;2022-12-18T02:08:39;119.93;;;59.63;;
51286;SDS011;37364;46.974;18.916;2022-12-18T02:11:17;123.93;;;59.22;;
51286;SDS011;37364;46.974;18.916;2022-12-18T02:13:53;113.75;;;58.00;;
51286;SDS011;37364;46.974;18.916;2022-12-18T02:16:39;116.82;;;60.50;;
51286;SDS011;37364;46.974;18.916;2022-12-18T02:19:21;116.72;;;62.00;;
51286;SDS011;37364;46.974;18.916;2022-12-18T02:22:13;106.57;;;54.28;;
51286;SDS011;37364;46.974;18.916;2022-12-18T02:24:58;115.32;;;58.85;;
51286;SDS011;37364;46.974;18.916;2022-12-18T02:27:38;128.88;;;68.50;;
51286;SDS011;37364;46.974;18.916;2022-12-18T02:30:10;132.30;;;66.63;;
51286;SDS011;37364;46.974;18.916;2022-12-18T02:32:42;112.90;;;59.78;;
51286;SDS011;37364;46.974;18.916;2022-12-18T02:35:19;118.97;;;61.35;;
51286;SDS011;37364;46.974;18.916;2022-12-18T02:37:56;121.40;;;60.95;;
51286;SDS011;37364;46.974;18.916;2022-12-18T02:40:31;136.18;;;69.20;;
51286;SDS011;37364;46.974;18.916;2022-12-18T02:43:06;122.13;;;61.13;;
51286;SDS011;37364;46.974;18.916;2022-12-18T02:45:45;138.35;;;65.80;;
51286;SDS011;37364;46.974;18.916;2022-12-18T02:48:18;111.95;;;58.85;;
51286;SDS011;37364;46.974;18.916;2022-12-18T02:50:55;116.93;;;57.88;;
51286;SDS011;37364;46.974;18.916;2022-12-18T02:53:33;112.88;;;59.97;;
51286;SDS011;37364;46.974;18.916;2022-12-18T02:56:12;112.72;;;57.00;;
51286;SDS011;37364;46.974;18.916;2022-12-18T02:58:52;107.00;;;56.40;;
51286;SDS011;37364;46.974;18.916;2022-12-18T03:01:34;111.72;;;58.13;;
51286;SDS011;37364;46.974;18.916;2022-12-18T03:04:14;100.43;;;54.63;;
51286;SDS011;37364;46.974;18.916;2022-12-18T03:06:54;110.18;;;54.90;;
51286;SDS011;37364;46.974;18.916;2022-12-18T03:09:31;114.07;;;59.72;;
51286;SDS011;37364;46.974;18.916;2022-12-18T03:12:09;108.50;;;56.05;;
51286;SDS011;37364;46.974;18.916;2022-12-18T03:14:59;103.50;;;54.35;;
51286;SDS011;37364;46.974;18.916;2022-12-18T03:17:46;106.18;;;56.00;;
51286;SDS011;37364;46.974;18.916;2022-12-18T03:20:24;114.68;;;58.50;;
51286;SDS011;37364;46.974;18.916;2022-12-18T03:23:06;114.63;;;57.33;;
51286;SDS011;37364;46.974;18.916;2022-12-18T03:25:44;108.68;;;58.97;;
51286;SDS011;37364;46.974;18.916;2022-12-18T03:28:37;115.60;;;54.58;;
51286;SDS011;37364;46.974;18.916;2022-12-18T03:31:12;111.07;;;56.38;;
51286;SDS011;37364;46.974;18.916;2022-12-18T03:33:45;107.30;;;55.28;;
51286;SDS011;37364;46.974;18.916;2022-12-18T03:36:26;108.05;;;55.55;;
51286;SDS011;37364;46.974;18.916;2022-12-18T03:39:00;114.03;;;57.63;;
51286;SDS011;37364;46.974;18.916;2022-12-18T03:41:42;98.68;;;53.00;;
51286;SDS011;37364;46.974;18.916;2022-12-18T03:44:25;113.40;;;58.55;;
51286;SDS011;37364;46.974;18.916;2022-12-18T03:47:03;104.45;;;56.08;;
51286;SDS011;37364;46.974;18.916;2022-12-18T03:49:38;112.78;;;55.78;;
51286;SDS011;37364;46.974;18.916;2022-12-18T03:52:20;112.65;;;56.08;;
51286;SDS011;37364;46.974;18.916;2022-12-18T03:54:56;103.07;;;53.13;;
51286;SDS011;37364;46.974;18.916;2022-12-18T03:57:31;120.38;;;59.35;;
51286;SDS011;37364;46.974;18.916;2022-12-18T04:00:08;123.50;;;59.75;;
51286;SDS011;37364;46.974;18.916;2022-12-18T04:02:57;132.80;;;65.38;;
51286;SDS011;37364;46.974;18.916;2022-12-18T04:05:37;123.68;;;60.25;;
51286;SDS011;37364;46.974;18.916;2022-12-18T04:08:12;109.00;;;57.60;;
51286;SDS011;37364;46.974;18.916;2022-12-18T04:10:54;113.88;;;58.88;;
51286;SDS011;37364;46.974;18.916;2022-12-18T04:13:27;104.82;;;52.38;;
51286;SDS011;37364;46.974;18.916;2022-12-18T04:16:02;101.20;;;54.92;;
51286;SDS011;37364;46.974;18.916;2022-12-18T04:18:36;114.63;;;59.90;;
51286;SDS011;37364;46.974;18.916;2022-12-18T04:21:08;116.90;;;60.00;;
51286;SDS011;37364;46.974;18.916;2022-12-18T04:23:39;107.78;;;56.65;;
51286;SDS011;37364;46.974;18.916;2022-12-18T04:26:09;109.00;;;56.85;;
51286;SDS011;37364;46.974;18.916;2022-12-18T04:28:51;107.55;;;56.90;;
51286;SDS011;37364;46.974;18.916;2022-12-18T04:31:21;96.82;;;53.63;;
51286;SDS011;37364;46.974;18.916;2022-12-18T04:33:55;114.45;;;61.42;;
51286;SDS011;37364;46.974;18.916;2022-12-18T04:36:27;114.55;;;57.92;;
51286;SDS011;37364;46.974;18.916;2022-12-18T04:38:58;110.13;;;59.88;;
51286;SDS011;37364;46.974;18.916;2022-12-18T04:41:30;116.45;;;63.00;;
51286;SDS011;37364;46.974;18.916;2022-12-18T04:44:08;112.15;;;60.67;;
51286;SDS011;37364;46.974;18.916;2022-12-18T04:46:39;118.68;;;59.40;;
51286;SDS011;37364;46.974;18.916;2022-12-18T04:49:12;114.80;;;59.38;;
51286;SDS011;37364;46.974;18.916;2022-12-18T04:51:43;110.45;;;60.45;;
51286;SDS011;37364;46.974;18.916;2022-12-18T04:54:13;110.60;;;57.30;;
51286;SDS011;37364;46.974;18.916;2022-12-18T04:56:46;118.90;;;64.53;;
51286;SDS011;37364;46.974;18.916;2022-12-18T04:59:18;101.53;;;55.88;;
51286;SDS011;37364;46.974;18.916;2022-12-18T05:01:48;113.70;;;58.80;;
51286;SDS011;37364;46.974;18.916;2022-12-18T05:04:22;101.63;;;55.92;;
51286;SDS011;37364;46.974;18.916;2022-12-18T05:06:53;108.53;;;57.83;;
51286;SDS011;37364;46.974;18.916;2022-12-18T05:09:26;115.07;;;56.47;;
51286;SDS011;37364;46.974;18.916;2022-12-18T05:11:56;101.93;;;52.40;;
51286;SDS011;37364;46.974;18.916;2022-12-18T05:14:28;101.75;;;56.03;;
51286;SDS011;37364;46.974;18.916;2022-12-18T05:16:59;110.57;;;55.53;;
51286;SDS011;37364;46.974;18.916;2022-12-18T05:19:32;101.72;;;53.95;;
51286;SDS011;37364;46.974;18.916;2022-12-18T05:22:08;106.20;;;55.50;;
51286;SDS011;37364;46.974;18.916;2022-12-18T05:27:09;117.28;;;57.85;;
51286;SDS011;37364;46.974;18.916;2022-12-18T05:29:39;128.75;;;64.40;;
51286;SDS011;37364;46.974;18.916;2022-12-18T05:32:09;119.40;;;55.83;;
51286;SDS011;37364;46.974;18.916;2022-12-18T05:34:42;117.72;;;61.00;;
51286;SDS011;37364;46.974;18.916;2022-12-18T05:37:12;111.85;;;57.65;;
51286;SDS011;37364;46.974;18.916;2022-12-18T05:39:44;107.80;;;54.30;;
51286;SDS011;37364;46.974;18.916;2022-12-18T05:42:14;100.03;;;54.75;;
51286;SDS011;37364;46.974;18.916;2022-12-18T05:44:44;104.20;;;55.00;;
51286;SDS011;37364;46.974;18.916;2022-12-18T05:47:15;113.22;;;58.08;;
51286;SDS011;37364;46.974;18.916;2022-12-18T05:49:48;127.78;;;59.47;;
51286;SDS011;37364;46.974;18.916;2022-12-18T05:52:18;112.70;;;57.42;;
51286;SDS011;37364;46.974;18.916;2022-12-18T05:54:48;111.07;;;55.03;;
51286;SDS011;37364;46.974;18.916;2022-12-18T05:57:18;109.22;;;55.22;;
51286;SDS011;37364;46.974;18.916;2022-12-18T05:59:48;114.97;;;57.85;;
51286;SDS011;37364;46.974;18.916;2022-12-18T06:02:19;120.30;;;62.40;;
51286;SDS011;37364;46.974;18.916;2022-12-18T06:04:56;133.98;;;71.65;;
51286;SDS011;37364;46.974;18.916;2022-12-18T06:07:26;158.02;;;81.57;;
51286;SDS011;37364;46.974;18.916;2022-12-18T06:09:57;125.90;;;64.50;;
51286;SDS011;37364;46.974;18.916;2022-12-18T06:12:30;123.38;;;60.47;;
51286;SDS011;37364;46.974;18.916;2022-12-18T06:15:00;144.05;;;70.53;;
51286;SDS011;37364;46.974;18.916;2022-12-18T06:17:30;163.15;;;80.65;;
51286;SDS011;37364;46.974;18.916;2022-12-18T06:20:04;159.95;;;82.72;;
51286;SDS011;37364;46.974;18.916;2022-12-18T06:22:36;136.50;;;73.50;;
51286;SDS011;37364;46.974;18.916;2022-12-18T06:25:07;127.63;;;65.70;;
51286;SDS011;37364;46.974;18.916;2022-12-18T06:27:37;143.60;;;74.75;;
51286;SDS011;37364;46.974;18.916;2022-12-18T06:30:09;135.00;;;68.40;;
51286;SDS011;37364;46.974;18.916;2022-12-18T06:32:40;125.95;;;66.43;;
51286;SDS011;37364;46.974;18.916;2022-12-18T06:35:16;134.07;;;67.05;;
51286;SDS011;37364;46.974;18.916;2022-12-18T06:37:47;127.45;;;66.95;;
51286;SDS011;37364;46.974;18.916;2022-12-18T06:40:17;124.15;;;64.72;;
51286;SDS011;37364;46.974;18.916;2022-12-18T06:42:50;126.97;;;66.47;;
51286;SDS011;37364;46.974;18.916;2022-12-18T06:45:23;122.88;;;67.88;;
51286;SDS011;37364;46.974;18.916;2022-12-18T06:47:53;128.65;;;70.65;;
51286;SDS011;37364;46.974;18.916;2022-12-18T06:50:27;131.63;;;68.30;;
51286;SDS011;37364;46.974;18.916;2022-12-18T06:52:57;142.27;;;71.13;;
51286;SDS011;37364;46.974;18.916;2022-12-18T06:55:28;131.88;;;66.50;;
51286;SDS011;37364;46.974;18.916;2022-12-18T06:57:58;129.65;;;66.85;;
51286;SDS011;37364;46.974;18.916;2022-12-18T07:00:28;165.52;;;83.30;;
51286;SDS011;37364;46.974;18.916;2022-12-18T07:02:59;231.40;;;123.18;;
51286;SDS011;37364;46.974;18.916;2022-12-18T07:05:32;158.80;;;84.85;;
51286;SDS011;37364;46.974;18.916;2022-12-18T07:08:03;211.63;;;123.03;;
51286;SDS011;37364;46.974;18.916;2022-12-18T07:10:34;268.45;;;147.52;;
51286;SDS011;37364;46.974;18.916;2022-12-18T07:13:14;237.30;;;135.43;;
51286;SDS011;37364;46.974;18.916;2022-12-18T07:15:44;399.90;;;252.00;;
51286;SDS011;37364;46.974;18.916;2022-12-18T07:18:15;287.88;;;172.80;;
51286;SDS011;37364;46.974;18.916;2022-12-18T07:20:48;345.58;;;201.40;;
51286;SDS011;37364;46.974;18.916;2022-12-18T07:23:24;484.08;;;324.83;;
51286;SDS011;37364;46.974;18.916;2022-12-18T07:26:00;501.88;;;339.65;;
51286;SDS011;37364;46.974;18.916;2022-12-18T07:28:32;621.00;;;439.23;;
51286;SDS011;37364;46.974;18.916;2022-12-18T07:31:04;451.95;;;288.90;;
51286;SDS011;37364;46.974;18.916;2022-12-18T07:33:35;449.13;;;281.75;;
51286;SDS011;37364;46.974;18.916;2022-12-18T07:36:12;298.75;;;167.32;;
51286;SDS011;37364;46.974;18.916;2022-12-18T07:38:46;546.97;;;389.00;;
51286;SDS011;37364;46.974;18.916;2022-12-18T07:43:47;517.35;;;343.85;;
51286;SDS011;37364;46.974;18.916;2022-12-18T07:46:18;182.82;;;97.05;;
51286;SDS011;37364;46.974;18.916;2022-12-18T07:48:48;309.48;;;171.10;;
51286;SDS011;37364;46.974;18.916;2022-12-18T07:51:21;332.00;;;190.45;;
51286;SDS011;37364;46.974;18.916;2022-12-18T07:53:51;264.83;;;152.97;;
51286;SDS011;37364;46.974;18.916;2022-12-18T07:56:21;245.55;;;147.02;;
51286;SDS011;37364;46.974;18.916;2022-12-18T07:58:56;253.07;;;154.25;;
51286;SDS011;37364;46.974;18.916;2022-12-18T08:01:30;391.30;;;281.88;;
51286;SDS011;37364;46.974;18.916;2022-12-18T08:04:09;226.98;;;142.30;;
51286;SDS011;37364;46.974;18.916;2022-12-18T08:06:45;232.85;;;141.13;;
51286;SDS011;37364;46.974;18.916;2022-12-18T08:09:18;218.52;;;131.13;;
51286;SDS011;37364;46.974;18.916;2022-12-18T08:11:51;217.57;;;127.53;;
51286;SDS011;37364;46.974;18.916;2022-12-18T08:14:22;207.98;;;121.78;;
51286;SDS011;37364;46.974;18.916;2022-12-18T08:16:52;172.23;;;99.25;;
51286;SDS011;37364;46.974;18.916;2022-12-18T08:19:23;172.15;;;101.85;;
51286;SDS011;37364;46.974;18.916;2022-12-18T08:21:56;158.23;;;87.50;;
51286;SDS011;37364;46.974;18.916;2022-12-18T08:24:27;147.38;;;75.28;;
51286;SDS011;37364;46.974;18.916;2022-12-18T08:27:01;149.40;;;71.53;;
51286;SDS011;37364;46.974;18.916;2022-12-18T08:29:52;203.40;;;108.57;;
51286;SDS011;37364;46.974;18.916;2022-12-18T08:32:23;175.43;;;92.68;;
51286;SDS011;37364;46.974;18.916;2022-12-18T08:35:03;175.15;;;90.68;;
51286;SDS011;37364;46.974;18.916;2022-12-18T08:37:39;136.70;;;71.68;;
51286;SDS011;37364;46.974;18.916;2022-12-18T08:40:11;251.88;;;131.35;;
51286;SDS011;37364;46.974;18.916;2022-12-18T08:42:44;164.32;;;90.47;;
51286;SDS011;37364;46.974;18.916;2022-12-18T08:45:31;178.25;;;100.25;;
51286;SDS011;37364;46.974;18.916;2022-12-18T08:48:05;383.35;;;233.32;;
51286;SDS011;37364;46.974;18.916;2022-12-18T08:50:37;151.53;;;80.10;;
51286;SDS011;37364;46.974;18.916;2022-12-18T08:53:10;149.55;;;74.32;;
51286;SDS011;37364;46.974;18.916;2022-12-18T08:55:42;146.57;;;82.13;;
51286;SDS011;37364;46.974;18.916;2022-12-18T08:58:16;149.80;;;68.43;;
51286;SDS011;37364;46.974;18.916;2022-12-18T09:00:48;145.95;;;77.07;;
51286;SDS011;37364;46.974;18.916;2022-12-18T09:03:19;99.78;;;55.83;;
51286;SDS011;37364;46.974;18.916;2022-12-18T09:05:50;167.00;;;84.57;;
51286;SDS011;37364;46.974;18.916;2022-12-18T09:08:25;294.40;;;159.63;;
51286;SDS011;37364;46.974;18.916;2022-12-18T09:10:58;166.70;;;87.93;;
51286;SDS011;37364;46.974;18.916;2022-12-18T09:13:28;142.18;;;74.90;;
51286;SDS011;37364;46.974;18.916;2022-12-18T09:16:02;224.90;;;118.18;;
51286;SDS011;37364;46.974;18.916;2022-12-18T09:18:33;147.63;;;77.80;;
51286;SDS011;37364;46.974;18.916;2022-12-18T09:21:09;123.47;;;66.43;;
51286;SDS011;37364;46.974;18.916;2022-12-18T09:23:51;103.13;;;52.67;;
51286;SDS011;37364;46.974;18.916;2022-12-18T09:26:27;113.85;;;56.08;;
51286;SDS011;37364;46.974;18.916;2022-12-18T09:28:58;111.60;;;56.03;;
51286;SDS011;37364;46.974;18.916;2022-12-18T09:31:35;175.57;;;101.20;;
51286;SDS011;37364;46.974;18.916;2022-12-18T10:48:47;141.25;;;82.88;;
51286;SDS011;37364;46.974;18.916;2022-12-18T10:51:22;147.45;;;81.15;;
51286;SDS011;37364;46.974;18.916;2022-12-18T10:53:57;140.18;;;84.45;;
51286;SDS011;37364;46.974;18.916;2022-12-18T10:56:33;143.60;;;85.80;;
51286;SDS011;37364;46.974;18.916;2022-12-18T10:59:05;140.48;;;81.22;;
51286;SDS011;37364;46.974;18.916;2022-12-18T11:01:45;133.98;;;80.43;;
51286;SDS011;37364;46.974;18.916;2022-12-18T11:04:21;128.05;;;71.50;;
51286;SDS011;37364;46.974;18.916;2022-12-18T11:06:57;134.25;;;81.30;;
51286;SDS011;37364;46.974;18.916;2022-12-18T11:09:30;124.93;;;76.45;;
51286;SDS011;37364;46.974;18.916;2022-12-18T11:12:02;111.55;;;63.30;;
51286;SDS011;37364;46.974;18.916;2022-12-18T11:14:34;103.50;;;56.10;;
51286;SDS011;37364;46.974;18.916;2022-12-18T11:17:18;102.20;;;58.65;;
51286;SDS011;37364;46.974;18.916;2022-12-18T11:19:55;94.13;;;49.28;;
51286;SDS011;37364;46.974;18.916;2022-12-18T11:22:26;87.32;;;47.85;;
51286;SDS011;37364;46.974;18.916;2022-12-18T11:24:59;86.60;;;47.33;;
51286;SDS011;37364;46.974;18.916;2022-12-18T11:27:52;85.75;;;50.13;;
51286;SDS011;37364;46.974;18.916;2022-12-18T11:30:25;93.68;;;48.67;;
51286;SDS011;37364;46.974;18.916;2022-12-18T11:33:03;108.05;;;55.45;;
51286;SDS011;37364;46.974;18.916;2022-12-18T11:35:42;130.95;;;65.38;;
51286;SDS011;37364;46.974;18.916;2022-12-18T11:38:18;118.82;;;60.38;;
51286;SDS011;37364;46.974;18.916;2022-12-18T11:40:53;92.90;;;50.40;;
51286;SDS011;37364;46.974;18.916;2022-12-18T11:43:28;90.80;;;49.75;;
51286;SDS011;37364;46.974;18.916;2022-12-18T11:46:05;104.38;;;50.28;;
51286;SDS011;37364;46.974;18.916;2022-12-18T11:48:45;88.65;;;46.20;;
51286;SDS011;37364;46.974;18.916;2022-12-18T11:51:25;85.43;;;45.63;;
51286;SDS011;37364;46.974;18.916;2022-12-18T11:54:04;86.63;;;46.00;;
51286;SDS011;37364;46.974;18.916;2022-12-18T11:56:43;81.55;;;46.05;;
51286;SDS011;37364;46.974;18.916;2022-12-18T11:59:19;86.53;;;47.38;;
51286;SDS011;37364;46.974;18.916;2022-12-18T12:01:59;81.55;;;43.90;;
51286;SDS011;37364;46.974;18.916;2022-12-18T12:04:56;88.80;;;47.65;;
51286;SDS011;37364;46.974;18.916;2022-12-18T12:07:46;157.38;;;85.18;;
51286;SDS011;37364;46.974;18.916;2022-12-18T12:10:31;112.35;;;61.10;;
51286;SDS011;37364;46.974;18.916;2022-12-18T12:13:14;91.60;;;49.42;;
51286;SDS011;37364;46.974;18.916;2022-12-18T12:15:56;93.10;;;52.03;;
51286;SDS011;37364;46.974;18.916;2022-12-18T12:18:39;112.50;;;64.30;;
51286;SDS011;37364;46.974;18.916;2022-12-18T12:21:28;105.15;;;56.25;;
51286;SDS011;37364;46.974;18.916;2022-12-18T12:24:10;97.15;;;50.65;;
51286;SDS011;37364;46.974;18.916;2022-12-18T12:26:55;90.85;;;50.85;;
51286;SDS011;37364;46.974;18.916;2022-12-18T12:29:36;93.15;;;50.70;;
51286;SDS011;37364;46.974;18.916;2022-12-18T12:32:22;89.68;;;50.83;;
51286;SDS011;37364;46.974;18.916;2022-12-18T12:35:03;90.05;;;50.05;;
51286;SDS011;37364;46.974;18.916;2022-12-18T12:37:44;86.05;;;47.53;;
51286;SDS011;37364;46.974;18.916;2022-12-18T12:40:26;106.80;;;56.67;;
51286;SDS011;37364;46.974;18.916;2022-12-18T12:43:25;338.27;;;172.65;;
51286;SDS011;37364;46.974;18.916;2022-12-18T12:46:03;1070.47;;;647.92;;
51286;SDS011;37364;46.974;18.916;2022-12-18T12:48:36;348.58;;;182.48;;
51286;SDS011;37364;46.974;18.916;2022-12-18T12:51:13;179.35;;;95.80;;
51286;SDS011;37364;46.974;18.916;2022-12-18T12:53:47;182.68;;;95.47;;
51286;SDS011;37364;46.974;18.916;2022-12-18T12:56:21;362.15;;;192.68;;
51286;SDS011;37364;46.974;18.916;2022-12-18T12:58:57;88.75;;;48.95;;
51286;SDS011;37364;46.974;18.916;2022-12-18T13:01:33;93.82;;;50.67;;
51286;SDS011;37364;46.974;18.916;2022-12-18T13:04:12;95.78;;;53.25;;
51286;SDS011;37364;46.974;18.916;2022-12-18T13:06:53;95.47;;;50.80;;
51286;SDS011;37364;46.974;18.916;2022-12-18T13:09:30;97.90;;;52.40;;
51286;SDS011;37364;46.974;18.916;2022-12-18T13:12:08;102.90;;;52.25;;
51286;SDS011;37364;46.974;18.916;2022-12-18T13:14:53;94.53;;;51.45;;
51286;SDS011;37364;46.974;18.916;2022-12-18T13:17:26;124.90;;;70.90;;
51286;SDS011;37364;46.974;18.916;2022-12-18T13:22:50;111.70;;;61.55;;
51286;SDS011;37364;46.974;18.916;2022-12-18T13:25:32;134.88;;;70.97;;
51286;SDS011;37364;46.974;18.916;2022-12-18T13:28:09;117.85;;;69.25;;
51286;SDS011;37364;46.974;18.916;2022-12-18T13:30:42;125.45;;;74.63;;
51286;SDS011;37364;46.974;18.916;2022-12-18T13:33:35;103.43;;;61.10;;
51286;SDS011;37364;46.974;18.916;2022-12-18T13:36:32;88.20;;;50.88;;
51286;SDS011;37364;46.974;18.916;2022-12-18T13:48:22;99.50;;;53.08;;
51286;SDS011;37364;46.974;18.916;2022-12-18T13:51:09;101.82;;;55.42;;
51286;SDS011;37364;46.974;18.916;2022-12-18T13:53:48;99.30;;;54.47;;
51286;SDS011;37364;46.974;18.916;2022-12-18T13:56:22;119.00;;;67.38;;
51286;SDS011;37364;46.974;18.916;2022-12-18T13:59:05;103.93;;;57.65;;
51286;SDS011;37364;46.974;18.916;2022-12-18T14:01:45;114.47;;;59.47;;
51286;SDS011;37364;46.974;18.916;2022-12-18T14:04:20;102.90;;;57.33;;
51286;SDS011;37364;46.974;18.916;2022-12-18T14:06:54;107.45;;;57.88;;
51286;SDS011;37364;46.974;18.916;2022-12-18T14:09:28;108.85;;;62.10;;
51286;SDS011;37364;46.974;18.916;2022-12-18T14:12:02;131.68;;;80.00;;
51286;SDS011;37364;46.974;18.916;2022-12-18T14:14:46;114.80;;;61.90;;
51286;SDS011;37364;46.974;18.916;2022-12-18T14:17:23;108.75;;;61.50;;
51286;SDS011;37364;46.974;18.916;2022-12-18T14:19:54;109.27;;;54.00;;
51286;SDS011;37364;46.974;18.916;2022-12-18T14:22:24;99.20;;;55.03;;
51286;SDS011;37364;46.974;18.916;2022-12-18T14:25:13;105.65;;;57.13;;
51286;SDS011;37364;46.974;18.916;2022-12-18T14:27:46;185.98;;;81.68;;
51286;SDS011;37364;46.974;18.916;2022-12-18T14:30:26;148.98;;;70.38;;
51286;SDS011;37364;46.974;18.916;2022-12-18T14:33:05;154.30;;;68.82;;
51286;SDS011;37364;46.974;18.916;2022-12-18T14:35:40;145.23;;;64.38;;
51286;SDS011;37364;46.974;18.916;2022-12-18T14:38:20;157.98;;;70.22;;
51286;SDS011;37364;46.974;18.916;2022-12-18T14:40:53;169.38;;;75.70;;
51286;SDS011;37364;46.974;18.916;2022-12-18T14:43:32;143.48;;;69.07;;
51286;SDS011;37364;46.974;18.916;2022-12-18T14:46:04;141.88;;;68.82;;
51286;SDS011;37364;46.974;18.916;2022-12-18T14:48:39;143.57;;;71.22;;
51286;SDS011;37364;46.974;18.916;2022-12-18T14:51:15;140.65;;;69.97;;
51286;SDS011;37364;46.974;18.916;2022-12-18T14:53:47;133.88;;;67.63;;
51286;SDS011;37364;46.974;18.916;2022-12-18T14:56:23;118.88;;;67.07;;
51286;SDS011;37364;46.974;18.916;2022-12-18T14:58:56;124.88;;;64.85;;
51286;SDS011;37364;46.974;18.916;2022-12-18T15:01:28;119.35;;;65.75;;
51286;SDS011;37364;46.974;18.916;2022-12-18T15:04:18;146.60;;;72.65;;
51286;SDS011;37364;46.974;18.916;2022-12-18T15:07:08;133.52;;;67.03;;
51286;SDS011;37364;46.974;18.916;2022-12-18T15:09:44;139.38;;;70.68;;
51286;SDS011;37364;46.974;18.916;2022-12-18T15:12:33;125.72;;;68.22;;
51286;SDS011;37364;46.974;18.916;2022-12-18T15:15:05;130.30;;;64.63;;
51286;SDS011;37364;46.974;18.916;2022-12-18T15:17:56;139.57;;;74.97;;
51286;SDS011;37364;46.974;18.916;2022-12-18T15:20:30;153.10;;;79.88;;
51286;SDS011;37364;46.974;18.916;2022-12-18T15:23:02;159.82;;;80.22;;
51286;SDS011;37364;46.974;18.916;2022-12-18T15:25:34;149.48;;;76.43;;
51286;SDS011;37364;46.974;18.916;2022-12-18T15:28:13;138.32;;;73.22;;
51286;SDS011;37364;46.974;18.916;2022-12-18T15:31:02;148.30;;;75.57;;
51286;SDS011;37364;46.974;18.916;2022-12-18T15:33:35;158.38;;;79.68;;
51286;SDS011;37364;46.974;18.916;2022-12-18T15:36:11;151.70;;;79.65;;
51286;SDS011;37364;46.974;18.916;2022-12-18T15:38:52;158.85;;;86.65;;
51286;SDS011;37364;46.974;18.916;2022-12-18T15:41:30;148.85;;;79.80;;
51286;SDS011;37364;46.974;18.916;2022-12-18T15:44:03;148.30;;;79.63;;
51286;SDS011;37364;46.974;18.916;2022-12-18T15:46:47;155.02;;;80.38;;
51286;SDS011;37364;46.974;18.916;2022-12-18T15:49:18;147.30;;;78.85;;
51286;SDS011;37364;46.974;18.916;2022-12-18T15:51:54;143.43;;;75.70;;
51286;SDS011;37364;46.974;18.916;2022-12-18T15:54:27;148.15;;;81.82;;
51286;SDS011;37364;46.974;18.916;2022-12-18T15:57:10;154.20;;;80.30;;
51286;SDS011;37364;46.974;18.916;2022-12-18T15:59:53;149.30;;;78.63;;
51286;SDS011;37364;46.974;18.916;2022-12-18T16:02:25;152.98;;;76.75;;
51286;SDS011;37364;46.974;18.916;2022-12-18T16:04:56;172.07;;;90.90;;
51286;SDS011;37364;46.974;18.916;2022-12-18T16:07:29;195.70;;;93.60;;
51286;SDS011;37364;46.974;18.916;2022-12-18T16:09:59;238.80;;;106.80;;
51286;SDS011;37364;46.974;18.916;2022-12-18T16:12:30;302.92;;;127.70;;
51286;SDS011;37364;46.974;18.916;2022-12-18T16:15:01;254.82;;;112.03;;
51286;SDS011;37364;46.974;18.916;2022-12-18T16:17:37;223.77;;;109.00;;